Time;durP1;ratioP1;P1;durP2;ratioP2;P2;SDS_P1;SDS_P2;PMS_P1;PMS_P2;Temp;Humidity;BMP_temperature;BMP_pressure;BME280_temperature;BME280_humidity;BME280_pressure;Samples;Min_cycle;Max_cycle;Signal;HPM_P1;HPM_P2
2023/06/03 00:01:59;;;;;;;19.88;14.98;;;;;;;;;;5034895;28;20049;-73
2023/06/03 00:04:28;;;;;;;20.15;14.20;;;;;;;;;;5034561;28;20063;-73
2023/06/03 00:06:54;;;;;;;16.95;15.05;;;;;;;;;;5035701;28;20059;-73
2023/06/03 00:09:20;;;;;;;25.75;15.35;;;;;;;;;;5018100;28;20107;-73
2023/06/03 00:11:47;;;;;;;20.40;15.10;;;;;;;;;;5035566;28;20426;-73
2023/06/03 00:14:13;;;;;;;21.67;16.35;;;;;;;;;;5017191;28;20080;-72
2023/06/03 00:16:40;;;;;;;20.80;15.32;;;;;;;;;;5033355;28;20053;-72
2023/06/03 00:19:06;;;;;;;21.05;16.65;;;;;;;;;;5033519;28;20119;-72
2023/06/03 00:21:33;;;;;;;19.58;15.50;;;;;;;;;;5034184;28;20518;-72
2023/06/03 00:23:59;;;;;;;20.38;17.25;;;;;;;;;;5017723;28;20045;-73
2023/06/03 00:26:25;;;;;;;21.95;16.90;;;;;;;;;;5035269;28;20049;-71
2023/06/03 00:28:56;;;;;;;25.10;15.20;;;;;;;;;;5017599;28;20037;-73
2023/06/03 00:31:23;;;;;;;22.50;16.13;;;;;;;;;;5033050;28;20542;-71
2023/06/03 00:33:49;;;;;;;22.13;16.77;;;;;;;;;;5013671;28;20124;-74
2023/06/03 00:36:15;;;;;;;20.77;15.70;;;;;;;;;;5031853;28;20132;-72
2023/06/03 00:38:42;;;;;;;20.65;16.52;;;;;;;;;;5031849;28;20049;-73
2023/06/03 00:41:07;;;;;;;23.83;18.23;;;;;;;;;;5014201;28;20068;-73
2023/06/03 00:43:34;;;;;;;26.30;18.75;;;;;;;;;;5031700;28;20045;-72
2023/06/03 00:46:00;;;;;;;24.83;18.90;;;;;;;;;;5014110;28;20045;-72
2023/06/03 00:48:26;;;;;;;20.70;16.63;;;;;;;;;;5013976;28;20049;-71
2023/06/03 00:50:52;;;;;;;23.17;15.43;;;;;;;;;;5031496;28;20092;-72
2023/06/03 00:53:18;;;;;;;19.58;16.35;;;;;;;;;;5031411;28;20045;-73
2023/06/03 00:55:45;;;;;;;23.40;17.20;;;;;;;;;;5031344;28;20050;-72
2023/06/03 00:58:11;;;;;;;32.92;16.77;;;;;;;;;;5031587;28;20117;-73
2023/06/03 01:00:37;;;;;;;22.02;17.50;;;;;;;;;;5013921;28;20045;-71
2023/06/03 01:03:03;;;;;;;22.80;17.30;;;;;;;;;;5031358;28;20120;-72
2023/06/03 01:05:29;;;;;;;25.00;18.00;;;;;;;;;;5031347;28;20486;-73
2023/06/03 01:08:14;;;;;;;30.63;20.17;;;;;;;;;;5013279;28;20045;-73
2023/06/03 01:10:45;;;;;;;31.20;21.23;;;;;;;;;;5031096;28;20498;-72
2023/06/03 01:13:14;;;;;;;31.20;23.13;;;;;;;;;;5013788;28;20053;-73
2023/06/03 01:15:41;;;;;;;28.70;18.52;;;;;;;;;;5030739;28;20071;-73
2023/06/03 01:18:07;;;;;;;27.95;17.23;;;;;;;;;;5030909;28;20052;-73
2023/06/03 01:20:33;;;;;;;41.05;20.65;;;;;;;;;;5013531;28;20132;-71
2023/06/03 01:23:23;;;;;;;33.90;18.70;;;;;;;;;;5030930;28;20516;-73
2023/06/03 01:25:52;;;;;;;40.20;22.60;;;;;;;;;;5030760;28;20045;-73
2023/06/03 01:28:18;;;;;;;42.85;21.75;;;;;;;;;;5030904;28;20044;-72
2023/06/03 01:30:44;;;;;;;37.00;18.85;;;;;;;;;;5030769;28;20033;-71
2023/06/03 01:33:11;;;;;;;34.95;18.10;;;;;;;;;;4996901;28;20541;-73
2023/06/03 01:35:38;;;;;;;44.83;22.52;;;;;;;;;;5013006;28;20053;-71
2023/06/03 01:38:04;;;;;;;33.78;18.15;;;;;;;;;;5030789;28;20074;-72
2023/06/03 01:40:30;;;;;;;31.40;18.75;;;;;;;;;;5013171;28;20088;-72
2023/06/03 01:42:57;;;;;;;43.28;19.92;;;;;;;;;;5030463;28;20075;-73
2023/06/03 01:45:23;;;;;;;39.55;19.13;;;;;;;;;;5030599;28;20103;-73
2023/06/03 01:47:48;;;;;;;42.70;21.38;;;;;;;;;;5030284;28;20049;-72
2023/06/03 01:50:18;;;;;;;32.65;18.30;;;;;;;;;;5030533;28;20087;-72
2023/06/03 01:52:44;;;;;;;37.75;20.25;;;;;;;;;;5036284;28;20045;-73
2023/06/03 01:55:11;;;;;;;38.58;21.15;;;;;;;;;;5031478;28;20065;-74
2023/06/03 01:57:37;;;;;;;31.40;19.05;;;;;;;;;;5030389;28;20051;-73
2023/06/03 02:00:06;;;;;;;29.80;18.35;;;;;;;;;;5030847;28;20428;-74
2023/06/03 02:02:40;;;;;;;22.48;15.38;;;;;;;;;;5030601;28;20071;-73
2023/06/03 02:05:07;;;;;;;27.33;16.25;;;;;;;;;;5030357;28;20048;-72
2023/06/03 02:07:33;;;;;;;26.35;16.45;;;;;;;;;;4996853;28;20049;-73
2023/06/03 02:09:59;;;;;;;24.85;17.17;;;;;;;;;;5030387;28;20037;-72
2023/06/03 02:12:25;;;;;;;21.08;14.63;;;;;;;;;;5033628;28;20128;-73
2023/06/03 02:14:56;;;;;;;20.58;15.95;;;;;;;;;;4997968;28;20065;-72
2023/06/03 02:17:24;;;;;;;22.40;15.32;;;;;;;;;;5030751;28;20061;-72
2023/06/03 02:19:50;;;;;;;19.38;14.57;;;;;;;;;;5028552;28;20049;-71
2023/06/03 02:22:17;;;;;;;15.80;14.30;;;;;;;;;;5030277;28;20502;-72
2023/06/03 02:24:43;;;;;;;14.85;12.00;;;;;;;;;;5029739;28;20046;-73
2023/06/03 02:27:10;;;;;;;21.48;14.57;;;;;;;;;;5030028;28;20572;-72
2023/06/03 02:29:36;;;;;;;17.83;13.70;;;;;;;;;;4996111;28;20049;-73
2023/06/03 02:32:02;;;;;;;17.67;14.40;;;;;;;;;;5029655;28;20064;-72
2023/06/03 02:34:28;;;;;;;25.27;14.38;;;;;;;;;;4995846;28;20076;-73
2023/06/03 02:36:54;;;;;;;17.67;15.20;;;;;;;;;;5029762;28;20045;-73
2023/06/03 02:39:21;;;;;;;16.65;14.38;;;;;;;;;;5012258;28;20049;-73
2023/06/03 02:41:48;;;;;;;17.52;14.10;;;;;;;;;;5029576;28;20072;-72
2023/06/03 02:44:15;;;;;;;18.52;14.85;;;;;;;;;;5012237;28;20064;-73
2023/06/03 02:46:41;;;;;;;14.27;12.82;;;;;;;;;;5012013;28;20045;-72
2023/06/03 02:49:07;;;;;;;19.48;15.07;;;;;;;;;;5012219;28;20044;-72
2023/06/03 02:51:35;;;;;;;18.55;13.38;;;;;;;;;;5029997;28;20520;-71
2023/06/03 02:54:01;;;;;;;14.80;12.82;;;;;;;;;;5029363;28;20060;-72
2023/06/03 02:56:27;;;;;;;18.20;11.63;;;;;;;;;;5012200;28;20056;-71
2023/06/03 02:58:54;;;;;;;17.17;12.55;;;;;;;;;;4998370;28;20122;-72
2023/06/03 03:01:21;;;;;;;17.73;12.02;;;;;;;;;;5032450;28;20060;-72
2023/06/03 03:03:47;;;;;;;13.90;12.07;;;;;;;;;;5033237;28;20529;-72
2023/06/03 03:06:19;;;;;;;12.18;10.95;;;;;;;;;;5015895;28;20045;-73
2023/06/03 03:08:46;;;;;;;13.68;11.40;;;;;;;;;;5033249;28;20536;-71
2023/06/03 03:11:14;;;;;;;13.20;11.80;;;;;;;;;;5015960;28;20053;-72
2023/06/03 03:13:41;;;;;;;16.15;12.20;;;;;;;;;;5015799;28;20048;-72
2023/06/03 03:16:11;;;;;;;16.63;12.10;;;;;;;;;;5032028;28;20544;-72
2023/06/03 03:18:38;;;;;;;22.10;13.38;;;;;;;;;;5015846;28;20045;-72
2023/06/03 03:21:05;;;;;;;14.70;11.65;;;;;;;;;;5015451;28;20053;-72
2023/06/03 03:23:32;;;;;;;18.30;12.23;;;;;;;;;;5015458;28;20095;-73
2023/06/03 03:26:02;;;;;;;12.75;11.45;;;;;;;;;;4998998;28;20069;-72
2023/06/03 03:28:31;;;;;;;11.57;10.48;;;;;;;;;;4999958;28;20052;-73
2023/06/03 03:31:00;;;;;;;13.85;10.60;;;;;;;;;;5015170;28;20061;-72
2023/06/03 03:33:27;;;;;;;9.52;8.70;;;;;;;;;;5015293;28;20421;-73
2023/06/03 03:35:53;;;;;;;11.40;9.15;;;;;;;;;;5015142;28;20111;-72
2023/06/03 03:38:21;;;;;;;11.35;8.02;;;;;;;;;;4999521;28;20056;-72
2023/06/03 03:40:47;;;;;;;8.48;7.68;;;;;;;;;;5033604;28;20048;-73
2023/06/03 03:43:14;;;;;;;8.45;7.65;;;;;;;;;;5016253;28;20045;-72
2023/06/03 03:45:40;;;;;;;10.80;8.10;;;;;;;;;;5032925;28;20033;-72
2023/06/03 03:48:12;;;;;;;8.32;7.63;;;;;;;;;;4999905;28;20114;-71
2023/06/03 03:50:48;;;;;;;8.30;7.53;;;;;;;;;;5032708;28;20644;-73
2023/06/03 03:53:35;;;;;;;10.05;9.07;;;;;;;;;;5014995;28;20548;-72
2023/06/03 03:56:04;;;;;;;13.75;8.13;;;;;;;;;;5014827;28;20044;-71
2023/06/03 03:58:37;;;;;;;9.52;8.63;;;;;;;;;;4999678;28;20096;-72
2023/06/03 04:01:15;;;;;;;7.88;7.07;;;;;;;;;;5014675;28;20107;-73
2023/06/03 04:03:44;;;;;;;8.15;6.63;;;;;;;;;;5031219;28;20084;-72
2023/06/03 04:06:10;;;;;;;7.30;6.60;;;;;;;;;;5014656;28;20110;-71
2023/06/03 04:08:40;;;;;;;9.25;6.63;;;;;;;;;;5031710;28;20107;-72
2023/06/03 04:11:06;;;;;;;9.25;7.57;;;;;;;;;;5031835;28;20098;-72
2023/06/03 04:13:36;;;;;;;9.90;7.53;;;;;;;;;;5031107;28;20053;-72
2023/06/03 04:16:05;;;;;;;9.75;6.60;;;;;;;;;;5032119;28;20065;-73
2023/06/03 04:18:35;;;;;;;6.63;6.13;;;;;;;;;;4998374;28;20452;-74
2023/06/03 04:21:02;;;;;;;8.55;5.75;;;;;;;;;;4998127;28;20044;-72
2023/06/03 04:23:28;;;;;;;6.05;5.55;;;;;;;;;;5014503;28;20102;-72
2023/06/03 04:25:55;;;;;;;7.18;6.28;;;;;;;;;;5030543;28;20464;-72
2023/06/03 04:28:22;;;;;;;10.13;7.25;;;;;;;;;;5014469;28;20531;-73
2023/06/03 04:30:48;;;;;;;6.53;5.40;;;;;;;;;;4997550;28;20080;-73
2023/06/03 04:33:14;;;;;;;10.60;7.32;;;;;;;;;;5014227;28;20506;-73
2023/06/03 04:35:40;;;;;;;17.17;8.25;;;;;;;;;;4997931;28;20048;-73
2023/06/03 04:38:06;;;;;;;15.10;7.03;;;;;;;;;;5030421;28;20046;-71
2023/06/03 04:40:33;;;;;;;6.10;5.50;;;;;;;;;;5031700;28;20045;-73
2023/06/03 04:43:03;;;;;;;6.93;4.78;;;;;;;;;;5030314;28;20133;-73
2023/06/03 04:45:32;;;;;;;6.60;5.10;;;;;;;;;;5014065;28;20037;-73
2023/06/03 04:48:01;;;;;;;5.05;4.55;;;;;;;;;;5013700;28;20056;-73
2023/06/03 04:50:34;;;;;;;4.40;3.67;;;;;;;;;;5013725;28;20103;-73
2023/06/03 04:53:02;;;;;;;4.90;4.53;;;;;;;;;;5030169;28;20048;-74
2023/06/03 04:55:28;;;;;;;4.45;4.15;;;;;;;;;;5014167;28;20085;-71
2023/06/03 04:57:55;;;;;;;4.47;4.18;;;;;;;;;;5013696;28;20072;-73
2023/06/03 05:00:23;;;;;;;5.88;5.30;;;;;;;;;;5013726;28;20045;-72
2023/06/03 05:02:57;;;;;;;5.53;4.50;;;;;;;;;;4997203;28;20048;-71
2023/06/03 05:05:26;;;;;;;4.77;4.43;;;;;;;;;;5013752;28;20064;-73
2023/06/03 05:07:53;;;;;;;4.97;4.47;;;;;;;;;;5013265;28;20055;-72
2023/06/03 05:10:19;;;;;;;5.95;3.85;;;;;;;;;;5031298;28;20385;-72
2023/06/03 05:12:46;;;;;;;3.95;3.65;;;;;;;;;;5013760;28;20049;-72
2023/06/03 05:15:13;;;;;;;4.13;3.83;;;;;;;;;;5013187;28;20100;-73
2023/06/03 05:17:40;;;;;;;7.40;4.10;;;;;;;;;;4997225;28;20046;-73
2023/06/03 05:20:07;;;;;;;5.68;3.30;;;;;;;;;;5013065;28;20072;-71
2023/06/03 05:22:33;;;;;;;4.35;3.30;;;;;;;;;;5031029;28;20049;-73
2023/06/03 05:25:01;;;;;;;3.20;2.92;;;;;;;;;;5013109;28;20541;-72
2023/06/03 05:27:27;;;;;;;3.70;3.50;;;;;;;;;;5013752;28;20041;-73
2023/06/03 05:29:54;;;;;;;6.28;2.80;;;;;;;;;;5014510;28;20041;-72
2023/06/03 05:32:21;;;;;;;3.00;2.88;;;;;;;;;;4997579;28;20050;-73
2023/06/03 05:34:47;;;;;;;3.20;3.00;;;;;;;;;;5013165;28;20111;-73
2023/06/03 05:37:14;;;;;;;2.58;2.47;;;;;;;;;;5013025;28;20049;-74
2023/06/03 05:39:40;;;;;;;2.78;2.65;;;;;;;;;;5013324;28;20045;-73
2023/06/03 05:42:08;;;;;;;2.72;2.53;;;;;;;;;;5012914;28;20041;-73
2023/06/03 05:44:34;;;;;;;2.30;2.20;;;;;;;;;;5030747;28;20492;-73
2023/06/03 05:47:01;;;;;;;2.25;1.98;;;;;;;;;;5012995;28;20128;-73
2023/06/03 05:49:28;;;;;;;1.88;1.83;;;;;;;;;;5016744;28;20049;-73
2023/06/03 05:51:55;;;;;;;2.03;1.92;;;;;;;;;;5017347;28;20052;-73
2023/06/03 05:54:22;;;;;;;2.30;2.20;;;;;;;;;;5014603;28;20611;-73
2023/06/03 05:56:48;;;;;;;2.45;2.30;;;;;;;;;;5012699;28;20041;-73
2023/06/03 05:59:14;;;;;;;2.33;2.22;;;;;;;;;;5012555;28;20107;-73
2023/06/03 06:01:43;;;;;;;2.42;2.33;;;;;;;;;;5013004;28;20132;-73
2023/06/03 06:04:11;;;;;;;2.40;2.20;;;;;;;;;;5012375;28;20053;-74
2023/06/03 06:06:37;;;;;;;2.20;2.10;;;;;;;;;;5030400;28;20041;-73
2023/06/03 06:09:03;;;;;;;2.05;1.95;;;;;;;;;;5030006;28;20088;-73
2023/06/03 06:11:30;;;;;;;2.60;2.40;;;;;;;;;;5012777;28;20046;-73
2023/06/03 06:13:56;;;;;;;2.53;2.30;;;;;;;;;;5029663;28;20056;-73
2023/06/03 06:16:23;;;;;;;2.95;2.70;;;;;;;;;;5030076;28;20543;-73
2023/06/03 06:18:50;;;;;;;2.53;2.20;;;;;;;;;;5012635;28;20037;-73
2023/06/03 06:21:17;;;;;;;3.45;3.00;;;;;;;;;;5012505;28;20124;-73
2023/06/03 06:23:44;;;;;;;2.40;2.30;;;;;;;;;;5029416;28;20053;-73
2023/06/03 06:26:13;;;;;;;3.00;2.80;;;;;;;;;;4995969;28;20041;-72
2023/06/03 06:28:39;;;;;;;2.50;2.40;;;;;;;;;;5030303;28;20038;-73
2023/06/03 06:31:09;;;;;;;2.30;2.20;;;;;;;;;;4995704;28;20536;-72
2023/06/03 06:33:47;;;;;;;2.63;2.42;;;;;;;;;;5011815;28;20042;-73
2023/06/03 06:36:20;;;;;;;2.58;2.38;;;;;;;;;;4995621;28;20053;-73
2023/06/03 06:38:47;;;;;;;2.60;2.40;;;;;;;;;;5030115;28;20041;-71
2023/06/03 06:41:14;;;;;;;2.45;2.30;;;;;;;;;;5011858;28;20045;-73
2023/06/03 06:43:40;;;;;;;2.90;2.45;;;;;;;;;;5012438;28;20041;-73
2023/06/03 06:46:07;;;;;;;2.55;2.42;;;;;;;;;;5029503;28;20045;-73
2023/06/03 06:48:34;;;;;;;2.42;2.05;;;;;;;;;;5012369;28;20049;-73
2023/06/03 06:51:03;;;;;;;4.22;2.30;;;;;;;;;;4995440;28;20046;-74
2023/06/03 06:53:33;;;;;;;2.63;2.53;;;;;;;;;;5012587;28;20041;-73
2023/06/03 06:56:09;;;;;;;2.63;2.53;;;;;;;;;;5011930;28;20061;-73
2023/06/03 06:58:44;;;;;;;2.47;2.38;;;;;;;;;;5012377;28;20502;-74
2023/06/03 07:01:11;;;;;;;2.63;2.22;;;;;;;;;;5011852;28;20190;-73
2023/06/03 07:03:43;;;;;;;2.67;2.40;;;;;;;;;;5012326;28;20057;-74
2023/06/03 07:06:10;;;;;;;3.78;2.53;;;;;;;;;;5011815;28;20057;-74
2023/06/03 07:08:38;;;;;;;2.85;2.60;;;;;;;;;;4996035;28;20037;-74
2023/06/03 07:11:04;;;;;;;3.05;2.85;;;;;;;;;;5011587;28;20561;-73
2023/06/03 07:13:38;;;;;;;3.30;2.70;;;;;;;;;;5011985;28;20088;-74
2023/06/03 07:16:08;;;;;;;3.83;2.42;;;;;;;;;;4995287;28;20049;-73
2023/06/03 07:18:35;;;;;;;2.60;2.47;;;;;;;;;;5013609;28;20041;-73
2023/06/03 07:21:01;;;;;;;2.83;2.70;;;;;;;;;;4996211;28;20045;-73
2023/06/03 07:23:28;;;;;;;4.57;2.72;;;;;;;;;;4996375;28;20042;-73
2023/06/03 07:25:55;;;;;;;3.35;3.05;;;;;;;;;;5011998;28;20133;-73
2023/06/03 07:28:34;;;;;;;3.17;2.97;;;;;;;;;;4996143;28;20179;-74
2023/06/03 07:31:09;;;;;;;4.30;3.42;;;;;;;;;;4995205;28;20049;-74
2023/06/03 07:33:37;;;;;;;5.03;4.38;;;;;;;;;;5011815;28;20042;-74
2023/06/03 07:36:04;;;;;;;4.10;3.90;;;;;;;;;;5029088;28;20513;-74
2023/06/03 07:38:34;;;;;;;4.03;2.47;;;;;;;;;;5011848;28;20525;-74
2023/06/03 07:41:00;;;;;;;3.78;3.40;;;;;;;;;;4995145;28;20237;-74
2023/06/03 07:43:26;;;;;;;5.38;4.25;;;;;;;;;;5012447;28;20041;-73
2023/06/03 07:45:53;;;;;;;4.50;4.13;;;;;;;;;;4999007;28;20064;-73
2023/06/03 07:48:19;;;;;;;8.88;4.45;;;;;;;;;;5032685;28;20142;-73
2023/06/03 07:50:48;;;;;;;4.95;4.65;;;;;;;;;;5015198;28;20452;-73
2023/06/03 07:53:22;;;;;;;5.25;4.85;;;;;;;;;;5032530;28;20457;-72
2023/06/03 07:55:48;;;;;;;4.93;4.20;;;;;;;;;;5032642;28;20583;-73
2023/06/03 07:58:15;;;;;;;4.82;4.43;;;;;;;;;;5032495;28;20119;-73
2023/06/03 08:00:51;;;;;;;4.65;4.25;;;;;;;;;;4998709;28;20581;-73
2023/06/03 08:03:18;;;;;;;4.32;3.88;;;;;;;;;;5014636;28;20148;-74
2023/06/03 08:05:48;;;;;;;4.20;3.90;;;;;;;;;;5032511;28;20041;-74
2023/06/03 08:08:15;;;;;;;4.90;3.75;;;;;;;;;;5014605;28;20041;-73
2023/06/03 08:10:42;;;;;;;5.60;4.30;;;;;;;;;;5032555;28;20107;-74
2023/06/03 08:13:08;;;;;;;3.92;3.63;;;;;;;;;;5032243;28;20135;-73
2023/06/03 08:15:35;;;;;;;5.88;4.28;;;;;;;;;;5014528;28;20061;-73
2023/06/03 08:18:05;;;;;;;3.65;3.45;;;;;;;;;;5032073;28;20087;-73
2023/06/03 08:20:31;;;;;;;5.68;4.07;;;;;;;;;;5032400;28;20045;-74
2023/06/03 08:22:59;;;;;;;3.58;3.28;;;;;;;;;;4998363;28;20048;-74
2023/06/03 08:25:25;;;;;;;3.33;3.05;;;;;;;;;;5014420;28;20057;-73
2023/06/03 08:27:52;;;;;;;2.72;2.53;;;;;;;;;;5014610;28;20041;-73
2023/06/03 08:30:20;;;;;;;2.70;2.13;;;;;;;;;;5014237;28;20071;-74
2023/06/03 08:32:48;;;;;;;4.70;2.20;;;;;;;;;;5014834;28;20033;-75
2023/06/03 08:35:15;;;;;;;2.60;1.80;;;;;;;;;;5031526;28;20525;-75
2023/06/03 08:37:41;;;;;;;3.15;1.70;;;;;;;;;;5032050;28;20072;-73
2023/06/03 08:40:09;;;;;;;1.90;1.80;;;;;;;;;;5031670;28;20096;-74
2023/06/03 08:42:39;;;;;;;2.05;1.95;;;;;;;;;;5032153;28;20064;-74
2023/06/03 08:45:05;;;;;;;1.70;1.60;;;;;;;;;;5031924;28;20065;-73
2023/06/03 08:47:52;;;;;;;1.50;1.45;;;;;;;;;;5032192;28;20591;-74
2023/06/03 08:50:20;;;;;;;1.67;1.58;;;;;;;;;;5013761;28;20132;-73
2023/06/03 08:52:46;;;;;;;1.52;1.42;;;;;;;;;;5031710;28;20493;-73
2023/06/03 08:55:16;;;;;;;1.58;1.48;;;;;;;;;;5030732;28;20510;-74
2023/06/03 08:58:03;;;;;;;1.33;1.33;;;;;;;;;;5013737;28;20079;-73
2023/06/03 09:00:30;;;;;;;1.98;1.75;;;;;;;;;;5013612;28;20045;-73
2023/06/03 09:02:56;;;;;;;2.00;1.13;;;;;;;;;;5031432;28;20053;-73
2023/06/03 09:05:23;;;;;;;1.80;1.70;;;;;;;;;;5031245;28;20049;-73
2023/06/03 09:07:50;;;;;;;1.65;1.55;;;;;;;;;;5033196;28;20044;-73
2023/06/03 09:10:16;;;;;;;3.38;1.70;;;;;;;;;;5032683;28;20124;-74
2023/06/03 09:12:45;;;;;;;1.65;1.48;;;;;;;;;;5031650;28;20434;-74
2023/06/03 09:15:15;;;;;;;3.30;1.65;;;;;;;;;;5014223;28;20116;-74
2023/06/03 09:17:41;;;;;;;2.47;2.28;;;;;;;;;;5030882;28;20414;-74
2023/06/03 09:20:07;;;;;;;4.57;3.40;;;;;;;;;;4997879;28;20045;-74
2023/06/03 09:22:34;;;;;;;3.78;3.47;;;;;;;;;;4998413;28;20044;-72
2023/06/03 09:25:00;;;;;;;3.30;2.90;;;;;;;;;;5032117;28;20409;-73
2023/06/03 09:27:26;;;;;;;9.13;4.65;;;;;;;;;;5031822;28;20116;-73
2023/06/03 09:29:55;;;;;;;3.45;3.15;;;;;;;;;;5031955;28;20116;-73
2023/06/03 09:32:21;;;;;;;3.58;2.78;;;;;;;;;;5031326;28;20052;-72
2023/06/03 09:34:48;;;;;;;3.50;2.55;;;;;;;;;;5031154;28;20057;-73
2023/06/03 09:37:14;;;;;;;2.65;2.30;;;;;;;;;;5030480;28;20136;-73
2023/06/03 09:39:41;;;;;;;2.88;2.67;;;;;;;;;;5030934;28;20099;-73
2023/06/03 09:42:08;;;;;;;1.75;1.65;;;;;;;;;;5030728;28;20041;-73
2023/06/03 09:44:39;;;;;;;4.35;3.10;;;;;;;;;;5030832;28;20045;-73
2023/06/03 09:47:05;;;;;;;4.28;2.83;;;;;;;;;;4996922;28;20485;-73
2023/06/03 09:49:31;;;;;;;4.93;3.35;;;;;;;;;;5031336;28;20065;-73
2023/06/03 09:51:58;;;;;;;2.00;1.85;;;;;;;;;;5033348;28;20160;-73
2023/06/03 09:54:24;;;;;;;2.10;2.00;;;;;;;;;;5016461;28;20054;-73
2023/06/03 09:56:51;;;;;;;1.90;1.73;;;;;;;;;;5034085;28;20033;-73
2023/06/03 09:59:18;;;;;;;1.70;1.60;;;;;;;;;;5031027;28;20049;-73
2023/06/03 10:01:48;;;;;;;1.67;1.58;;;;;;;;;;5012692;28;20094;-73
2023/06/03 10:04:21;;;;;;;1.70;1.45;;;;;;;;;;5028854;28;20049;-73
2023/06/03 10:06:47;;;;;;;2.63;1.83;;;;;;;;;;5011999;28;20124;-73
2023/06/03 10:09:17;;;;;;;3.55;1.58;;;;;;;;;;5012248;28;20521;-73
2023/06/03 10:11:47;;;;;;;1.70;1.30;;;;;;;;;;5030253;28;20525;-73
2023/06/03 10:14:15;;;;;;;1.83;1.73;;;;;;;;;;5029924;28;20065;-73
2023/06/03 10:16:41;;;;;;;1.35;1.35;;;;;;;;;;5012654;28;20422;-73
2023/06/03 10:19:07;;;;;;;1.92;1.85;;;;;;;;;;4995744;28;20044;-73
2023/06/03 10:21:33;;;;;;;3.30;3.08;;;;;;;;;;5030174;28;20041;-73
2023/06/03 10:24:00;;;;;;;4.38;4.07;;;;;;;;;;5012891;28;20140;-73
2023/06/03 10:26:26;;;;;;;3.80;3.53;;;;;;;;;;5029844;28;20524;-73
2023/06/03 10:28:52;;;;;;;3.40;3.20;;;;;;;;;;5030050;28;20060;-73
2023/06/03 10:31:18;;;;;;;2.65;2.53;;;;;;;;;;5029667;28;20488;-73
2023/06/03 10:33:45;;;;;;;2.08;1.98;;;;;;;;;;5030118;28;20045;-72
2023/06/03 10:36:11;;;;;;;1.73;1.73;;;;;;;;;;5012145;28;20045;-73
2023/06/03 10:38:38;;;;;;;2.80;1.95;;;;;;;;;;5030180;28;20061;-73
2023/06/03 10:41:04;;;;;;;2.10;2.00;;;;;;;;;;5029772;28;20548;-73
2023/06/03 10:43:31;;;;;;;1.70;1.60;;;;;;;;;;5029704;28;20052;-73
2023/06/03 10:45:57;;;;;;;1.70;1.60;;;;;;;;;;5012269;28;20394;-73
2023/06/03 10:48:24;;;;;;;2.22;1.77;;;;;;;;;;5029793;28;20049;-73
2023/06/03 10:50:54;;;;;;;1.25;1.25;;;;;;;;;;5029794;28;20063;-73
2023/06/03 10:53:23;;;;;;;2.75;1.60;;;;;;;;;;5028391;28;20561;-73
2023/06/03 10:56:08;;;;;;;1.33;1.33;;;;;;;;;;4997127;28;20077;-73
2023/06/03 10:58:35;;;;;;;1.95;1.45;;;;;;;;;;5016065;28;20517;-73
2023/06/03 11:01:02;;;;;;;1.60;1.50;;;;;;;;;;5013104;28;20053;-73
2023/06/03 11:03:30;;;;;;;1.58;1.40;;;;;;;;;;5030423;28;20581;-73
2023/06/03 11:06:15;;;;;;;1.83;1.73;;;;;;;;;;5029866;28;20046;-74
2023/06/03 11:09:04;;;;;;;1.75;1.65;;;;;;;;;;5029779;28;20037;-74
2023/06/03 11:11:40;;;;;;;3.40;1.67;;;;;;;;;;5029568;28;20091;-73
2023/06/03 11:14:08;;;;;;;3.65;1.70;;;;;;;;;;5029586;28;20046;-74
2023/06/03 11:16:53;;;;;;;2.85;1.88;;;;;;;;;;4993618;28;20057;-73
2023/06/03 11:19:27;;;;;;;2.05;1.90;;;;;;;;;;4994271;28;20041;-73
2023/06/03 11:21:53;;;;;;;2.33;2.22;;;;;;;;;;4996131;28;20209;-73
2023/06/03 11:24:38;;;;;;;2.25;2.10;;;;;;;;;;5013128;28;20057;-73
2023/06/03 11:27:10;;;;;;;2.05;1.95;;;;;;;;;;5013453;28;20038;-74
2023/06/03 11:29:43;;;;;;;2.78;2.08;;;;;;;;;;5013575;28;20073;-74
2023/06/03 11:32:19;;;;;;;2.42;2.20;;;;;;;;;;5013345;28;20099;-74
2023/06/03 11:34:46;;;;;;;2.35;2.25;;;;;;;;;;4979611;28;20109;-74
2023/06/03 11:37:14;;;;;;;2.70;2.50;;;;;;;;;;4995076;28;20149;-73
2023/06/03 11:40:00;;;;;;;2.25;2.00;;;;;;;;;;5013367;28;20049;-74
2023/06/03 11:42:30;;;;;;;2.30;2.10;;;;;;;;;;5013008;28;20065;-73
2023/06/03 11:45:29;;;;;;;2.35;2.25;;;;;;;;;;4995715;28;20053;-73
2023/06/03 11:47:56;;;;;;;2.28;2.08;;;;;;;;;;4995698;28;20498;-73
2023/06/03 11:50:28;;;;;;;3.33;2.50;;;;;;;;;;4979878;28;20052;-73
2023/06/03 11:52:54;;;;;;;2.13;2.03;;;;;;;;;;4995723;28;20038;-73
2023/06/03 11:55:24;;;;;;;2.78;2.58;;;;;;;;;;5012588;28;20049;-73
2023/06/03 11:57:50;;;;;;;2.40;2.30;;;;;;;;;;4995667;28;20050;-72
2023/06/03 12:00:16;;;;;;;2.90;2.60;;;;;;;;;;5012677;28;20183;-72
2023/06/03 12:02:42;;;;;;;2.45;2.25;;;;;;;;;;4995599;28;20095;-73
2023/06/03 12:05:08;;;;;;;2.28;2.17;;;;;;;;;;5012963;28;20463;-73
2023/06/03 12:07:35;;;;;;;2.33;2.13;;;;;;;;;;5011532;28;20049;-73
2023/06/03 12:10:01;;;;;;;2.30;2.05;;;;;;;;;;4995268;28;20046;-73
2023/06/03 12:12:28;;;;;;;6.78;2.42;;;;;;;;;;4995241;28;20065;-73
2023/06/03 12:14:54;;;;;;;3.63;2.60;;;;;;;;;;5017073;28;20053;-73
2023/06/03 12:17:21;;;;;;;2.30;2.10;;;;;;;;;;5032201;28;20071;-73
2023/06/03 12:19:48;;;;;;;2.55;1.95;;;;;;;;;;5032481;28;20073;-72
2023/06/03 12:22:20;;;;;;;1.42;1.42;;;;;;;;;;5031968;28;20073;-73
2023/06/03 12:24:46;;;;;;;2.13;1.90;;;;;;;;;;5032483;28;20041;-72
2023/06/03 12:27:22;;;;;;;2.08;1.98;;;;;;;;;;5032440;28;20371;-73
2023/06/03 12:29:49;;;;;;;2.40;2.30;;;;;;;;;;5014256;28;20033;-72
2023/06/03 12:32:15;;;;;;;1.90;1.80;;;;;;;;;;5032007;28;20048;-73
2023/06/03 12:34:43;;;;;;;2.45;1.70;;;;;;;;;;5032987;28;20473;-73
2023/06/03 12:37:12;;;;;;;1.83;1.73;;;;;;;;;;5016667;28;20095;-72
2023/06/03 12:39:40;;;;;;;5.07;1.98;;;;;;;;;;5034506;28;20037;-73
2023/06/03 12:42:06;;;;;;;4.03;1.80;;;;;;;;;;5034000;28;20115;-73
2023/06/03 12:44:52;;;;;;;2.80;1.80;;;;;;;;;;5014329;28;20041;-73
2023/06/03 12:47:19;;;;;;;3.17;2.10;;;;;;;;;;5031780;28;20395;-73
2023/06/03 12:50:01;;;;;;;4.70;1.73;;;;;;;;;;5015713;28;20068;-72
2023/06/03 12:52:34;;;;;;;2.60;2.30;;;;;;;;;;5032173;28;20051;-74
2023/06/03 12:55:00;;;;;;;1.50;1.50;;;;;;;;;;5032571;28;20068;-74
2023/06/03 12:57:26;;;;;;;4.55;1.88;;;;;;;;;;5031846;28;20045;-73
2023/06/03 13:00:08;;;;;;;1.90;1.80;;;;;;;;;;5031898;28;20084;-73
2023/06/03 13:02:38;;;;;;;3.55;1.70;;;;;;;;;;5031286;28;20049;-73
2023/06/03 13:05:05;;;;;;;1.83;1.73;;;;;;;;;;5031456;28;20064;-73
2023/06/03 13:07:35;;;;;;;1.48;1.45;;;;;;;;;;5013611;28;20073;-73
2023/06/03 13:10:01;;;;;;;1.85;1.50;;;;;;;;;;5031412;28;20460;-73
2023/06/03 13:12:32;;;;;;;1.50;1.50;;;;;;;;;;5031501;28;20041;-73
2023/06/03 13:14:58;;;;;;;2.47;2.28;;;;;;;;;;5031478;28;20092;-73
2023/06/03 13:17:25;;;;;;;1.80;1.70;;;;;;;;;;4997477;28;20068;-73
2023/06/03 13:19:51;;;;;;;2.60;2.42;;;;;;;;;;4998051;28;20076;-73
2023/06/03 13:22:17;;;;;;;2.70;2.50;;;;;;;;;;5030739;28;20041;-74
2023/06/03 13:24:43;;;;;;;2.00;1.90;;;;;;;;;;5013448;28;20042;-73
2023/06/03 13:27:10;;;;;;;1.80;1.70;;;;;;;;;;5030942;28;20045;-73
2023/06/03 13:29:37;;;;;;;2.42;2.22;;;;;;;;;;5030790;28;20041;-73
2023/06/03 13:32:04;;;;;;;1.85;1.75;;;;;;;;;;5031172;28;20053;-73
2023/06/03 13:34:30;;;;;;;2.05;1.95;;;;;;;;;;5030608;28;20049;-73
2023/06/03 13:36:56;;;;;;;2.15;1.70;;;;;;;;;;5030718;28;20056;-73
2023/06/03 13:39:22;;;;;;;1.73;1.63;;;;;;;;;;5030758;28;20041;-73
2023/06/03 13:41:52;;;;;;;1.70;1.60;;;;;;;;;;5030421;28;20052;-73
2023/06/03 13:44:17;;;;;;;5.65;1.88;;;;;;;;;;5013265;28;20124;-74
2023/06/03 13:46:43;;;;;;;2.60;1.25;;;;;;;;;;5013006;28;20141;-73
2023/06/03 13:49:09;;;;;;;1.90;1.80;;;;;;;;;;5030727;28;20103;-73
2023/06/03 13:51:39;;;;;;;1.63;1.52;;;;;;;;;;5030434;28;20049;-73
2023/06/03 13:54:06;;;;;;;3.97;1.45;;;;;;;;;;5030611;28;20586;-73
2023/06/03 13:56:32;;;;;;;1.58;1.55;;;;;;;;;;5030312;28;20402;-73
2023/06/03 13:58:58;;;;;;;1.70;1.70;;;;;;;;;;5030591;28;20097;-73
2023/06/03 14:01:27;;;;;;;1.77;1.60;;;;;;;;;;5030249;28;20041;-73
2023/06/03 14:03:54;;;;;;;1.60;1.50;;;;;;;;;;5030582;28;20044;-72
2023/06/03 14:06:21;;;;;;;1.95;1.60;;;;;;;;;;5030441;28;20048;-73
2023/06/03 14:08:47;;;;;;;1.58;1.48;;;;;;;;;;5030675;28;20041;-74
2023/06/03 14:11:14;;;;;;;3.03;2.10;;;;;;;;;;5030366;28;20051;-72
2023/06/03 14:13:40;;;;;;;1.50;1.48;;;;;;;;;;5012672;28;20549;-73
2023/06/03 14:16:06;;;;;;;1.95;1.85;;;;;;;;;;5030021;28;20068;-73
2023/06/03 14:18:33;;;;;;;1.33;1.33;;;;;;;;;;5012455;28;20117;-73
2023/06/03 14:20:59;;;;;;;4.22;1.95;;;;;;;;;;5030225;28;20524;-73
2023/06/03 14:23:25;;;;;;;2.00;1.90;;;;;;;;;;5030018;28;20041;-73
2023/06/03 14:25:51;;;;;;;3.63;2.25;;;;;;;;;;5030105;28;20112;-74
2023/06/03 14:28:17;;;;;;;9.45;2.33;;;;;;;;;;5030059;28;20045;-74
2023/06/03 14:30:43;;;;;;;7.78;2.05;;;;;;;;;;5029759;28;20057;-74
2023/06/03 14:33:10;;;;;;;2.70;2.10;;;;;;;;;;5030031;28;20045;-73
2023/06/03 14:35:36;;;;;;;1.98;1.70;;;;;;;;;;5029691;28;20105;-74
2023/06/03 14:38:02;;;;;;;2.13;1.90;;;;;;;;;;5029999;28;20498;-74
2023/06/03 14:40:28;;;;;;;2.55;2.30;;;;;;;;;;5030771;28;20103;-74
2023/06/03 14:42:54;;;;;;;4.28;2.30;;;;;;;;;;5012650;28;20042;-73